CGMXD CYSC-CYQB
Flight info
| Callsign | CGMXD |
|---|---|
| Flight time | 0h 29m |
| Altitude | 19000 |
| Route | PUSOD OMVAR1 |
| Aircraft | PC12/L-SDFGRWY/S |
Departure
| Time | 2026-05-08 20:33 |
|---|---|
| Airport | Sherbrooke Airport (CYSC) |
Arrival
| Time | 2026-05-08 21:02 |
|---|---|
| Airport | Quebec Jean Lesage International Airport (CYQB) |
| Time | Latitude | Longitude | Altitude | Speed | Heading |
|---|---|---|---|---|---|
| 2026-05-08 20:24 | 45.44115 | -71.68934 | 798 ft | 0 kts | 185° |
| 2026-05-08 20:29 | 45.44103 | -71.68936 | 798 ft | 6 kts | 187° |
| 2026-05-08 20:30 | 45.44044 | -71.68967 | 798 ft | 12 kts | 212° |
| 2026-05-08 20:30 | 45.43998 | -71.69004 | 798 ft | 9 kts | 210° |
| 2026-05-08 20:30 | 45.43917 | -71.69068 | 796 ft | 18 kts | 208° |
| 2026-05-08 20:30 | 45.43813 | -71.69044 | 789 ft | 19 kts | 120° |
| 2026-05-08 20:31 | 45.43737 | -71.68856 | 792 ft | 25 kts | 120° |
| 2026-05-08 20:31 | 45.43645 | -71.68624 | 795 ft | 29 kts | 122° |
| 2026-05-08 20:31 | 45.43610 | -71.68517 | 795 ft | 6 kts | 21° |
| 2026-05-08 20:31 | 45.43622 | -71.68543 | 795 ft | 1 kts | 298° |
| 2026-05-08 20:32 | 45.43627 | -71.68554 | 795 ft | 11 kts | 298° |
| 2026-05-08 20:32 | 45.43743 | -71.68860 | 792 ft | 59 kts | 298° |
| 2026-05-08 20:32 | 45.44019 | -71.69537 | 836 ft | 92 kts | 294° |
| 2026-05-08 20:32 | 45.44361 | -71.70325 | 1126 ft | 94 kts | 297° |
| 2026-05-08 20:33 | 45.44713 | -71.71085 | 1501 ft | 90 kts | 294° |
| 2026-05-08 20:33 | 45.45054 | -71.71853 | 1896 ft | 96 kts | 298° |
| 2026-05-08 20:33 | 45.45426 | -71.72668 | 2327 ft | 100 kts | 301° |
| 2026-05-08 20:33 | 45.46008 | -71.73282 | 2770 ft | 116 kts | 337° |
| 2026-05-08 20:34 | 45.46849 | -71.73205 | 3279 ft | 127 kts | 7° |
| 2026-05-08 20:34 | 45.47689 | -71.72753 | 3818 ft | 131 kts | 16° |
| 2026-05-08 20:34 | 45.49360 | -71.71632 | 4953 ft | 134 kts | 19° |
| 2026-05-08 20:35 | 45.50209 | -71.71066 | 5516 ft | 135 kts | 18° |
| 2026-05-08 20:35 | 45.51072 | -71.70513 | 6096 ft | 137 kts | 18° |
| 2026-05-08 20:35 | 45.51946 | -71.69970 | 6663 ft | 137 kts | 17° |
| 2026-05-08 20:35 | 45.52825 | -71.69435 | 7217 ft | 138 kts | 15° |
| 2026-05-08 20:36 | 45.53711 | -71.68907 | 7784 ft | 138 kts | 17° |
| 2026-05-08 20:36 | 45.54599 | -71.68377 | 8371 ft | 138 kts | 18° |
| 2026-05-08 20:36 | 45.55477 | -71.67856 | 8955 ft | 139 kts | 16° |
| 2026-05-08 20:36 | 45.56376 | -71.67326 | 9545 ft | 141 kts | 15° |
| 2026-05-08 20:37 | 45.57280 | -71.66796 | 10115 ft | 141 kts | 16° |
| 2026-05-08 20:37 | 45.58187 | -71.66263 | 10661 ft | 142 kts | 15° |
| 2026-05-08 20:37 | 45.59105 | -71.65726 | 11205 ft | 143 kts | 15° |
| 2026-05-08 20:37 | 45.59984 | -71.65209 | 11739 ft | 144 kts | 15° |
| 2026-05-08 20:38 | 45.60912 | -71.64660 | 12297 ft | 145 kts | 18° |
| 2026-05-08 20:38 | 45.61851 | -71.64105 | 12856 ft | 147 kts | 17° |
| 2026-05-08 20:38 | 45.62802 | -71.63546 | 13416 ft | 148 kts | 18° |
| 2026-05-08 20:38 | 45.63759 | -71.62982 | 13971 ft | 149 kts | 17° |
| 2026-05-08 20:39 | 45.64723 | -71.62413 | 14491 ft | 151 kts | 16° |
| 2026-05-08 20:39 | 45.65694 | -71.61841 | 15010 ft | 152 kts | 15° |
| 2026-05-08 20:39 | 45.66675 | -71.61264 | 15534 ft | 153 kts | 17° |
| 2026-05-08 20:39 | 45.67663 | -71.60682 | 16074 ft | 154 kts | 17° |
| 2026-05-08 20:40 | 45.68658 | -71.60098 | 16634 ft | 156 kts | 16° |
| 2026-05-08 20:40 | 45.69663 | -71.59506 | 17203 ft | 157 kts | 17° |
| 2026-05-08 20:40 | 45.70679 | -71.58908 | 17766 ft | 158 kts | 16° |
| 2026-05-08 20:40 | 45.71703 | -71.58304 | 18290 ft | 160 kts | 16° |
| 2026-05-08 20:41 | 45.72737 | -71.57694 | 18772 ft | 161 kts | 16° |
| 2026-05-08 20:41 | 45.73825 | -71.57057 | 18976 ft | 182 kts | 17° |
| 2026-05-08 20:41 | 45.75082 | -71.56323 | 19003 ft | 206 kts | 17° |
| 2026-05-08 20:41 | 45.76473 | -71.55500 | 19013 ft | 226 kts | 18° |
| 2026-05-08 20:42 | 45.77978 | -71.54605 | 19021 ft | 240 kts | 18° |
| 2026-05-08 20:42 | 45.79559 | -71.53663 | 19020 ft | 251 kts | 18° |
| 2026-05-08 20:42 | 45.81197 | -71.52687 | 19033 ft | 259 kts | 18° |
| 2026-05-08 20:42 | 45.82878 | -71.51686 | 19050 ft | 264 kts | 18° |
| 2026-05-08 20:43 | 45.84593 | -71.50667 | 19046 ft | 268 kts | 18° |
| 2026-05-08 20:43 | 45.86326 | -71.49637 | 19048 ft | 271 kts | 19° |
| 2026-05-08 20:43 | 45.88052 | -71.48611 | 19048 ft | 273 kts | 19° |
| 2026-05-08 20:43 | 45.89812 | -71.47564 | 19048 ft | 274 kts | 19° |
| 2026-05-08 20:44 | 45.91577 | -71.46513 | 19043 ft | 275 kts | 19° |
| 2026-05-08 20:44 | 45.93345 | -71.45461 | 19043 ft | 276 kts | 19° |
| 2026-05-08 20:44 | 45.95132 | -71.44397 | 18816 ft | 284 kts | 19° |
| 2026-05-08 20:44 | 45.96988 | -71.43296 | 18450 ft | 293 kts | 19° |
| 2026-05-08 20:45 | 45.98888 | -71.42166 | 18077 ft | 293 kts | 19° |
| 2026-05-08 20:45 | 46.00141 | -71.41412 | 17796 ft | 285 kts | 19° |
| 2026-05-08 20:45 | 46.02532 | -71.39973 | 17236 ft | 280 kts | 19° |
| 2026-05-08 20:45 | 46.04327 | -71.38900 | 16810 ft | 278 kts | 19° |
| 2026-05-08 20:46 | 46.06112 | -71.37836 | 16394 ft | 277 kts | 19° |
| 2026-05-08 20:46 | 46.07895 | -71.36774 | 15967 ft | 277 kts | 19° |
| 2026-05-08 20:46 | 46.09678 | -71.35712 | 15538 ft | 277 kts | 19° |
| 2026-05-08 20:46 | 46.11455 | -71.34650 | 15124 ft | 276 kts | 18° |
| 2026-05-08 20:47 | 46.13228 | -71.33590 | 14720 ft | 276 kts | 19° |
| 2026-05-08 20:47 | 46.14996 | -71.32530 | 14317 ft | 275 kts | 18° |
| 2026-05-08 20:47 | 46.16757 | -71.31473 | 13922 ft | 274 kts | 19° |
| 2026-05-08 20:47 | 46.18513 | -71.30416 | 13507 ft | 273 kts | 19° |
| 2026-05-08 20:48 | 46.20265 | -71.29366 | 13064 ft | 272 kts | 19° |
| 2026-05-08 20:48 | 46.22031 | -71.28418 | 12627 ft | 268 kts | 9° |
| 2026-05-08 20:48 | 46.23860 | -71.28295 | 12195 ft | 262 kts | 352° |
| 2026-05-08 20:48 | 46.25670 | -71.28569 | 11765 ft | 261 kts | 349° |
| 2026-05-08 20:49 | 46.27471 | -71.28877 | 11342 ft | 261 kts | 350° |
| 2026-05-08 20:49 | 46.29280 | -71.29177 | 10930 ft | 261 kts | 349° |
| 2026-05-08 20:49 | 46.31085 | -71.29470 | 10521 ft | 261 kts | 351° |
| 2026-05-08 20:49 | 46.32887 | -71.29760 | 10155 ft | 260 kts | 351° |
| 2026-05-08 20:50 | 46.34683 | -71.30047 | 9799 ft | 259 kts | 350° |
| 2026-05-08 20:50 | 46.36470 | -71.30337 | 9424 ft | 258 kts | 351° |
| 2026-05-08 20:50 | 46.38256 | -71.30622 | 9040 ft | 258 kts | 350° |
| 2026-05-08 20:50 | 46.40035 | -71.30908 | 8661 ft | 257 kts | 351° |
| 2026-05-08 20:51 | 46.41808 | -71.31194 | 8292 ft | 256 kts | 350° |
| 2026-05-08 20:51 | 46.43575 | -71.31478 | 7914 ft | 255 kts | 349° |
| 2026-05-08 20:51 | 46.45337 | -71.31761 | 7549 ft | 253 kts | 351° |
| 2026-05-08 20:51 | 46.47057 | -71.31800 | 7197 ft | 253 kts | 6° |
| 2026-05-08 20:52 | 46.48693 | -71.30834 | 6836 ft | 255 kts | 25° |
| 2026-05-08 20:52 | 46.50237 | -71.29628 | 6557 ft | 255 kts | 25° |
| 2026-05-08 20:52 | 46.51796 | -71.28413 | 6343 ft | 254 kts | 25° |
| 2026-05-08 20:52 | 46.53346 | -71.27205 | 6136 ft | 253 kts | 25° |
| 2026-05-08 20:53 | 46.54894 | -71.26000 | 5911 ft | 252 kts | 25° |
| 2026-05-08 20:53 | 46.56438 | -71.24799 | 5710 ft | 251 kts | 25° |
| 2026-05-08 20:53 | 46.57981 | -71.23601 | 5501 ft | 251 kts | 25° |
| 2026-05-08 20:53 | 46.59524 | -71.22402 | 5294 ft | 251 kts | 25° |
| 2026-05-08 20:54 | 46.61066 | -71.21204 | 5084 ft | 251 kts | 25° |
| 2026-05-08 20:54 | 46.62605 | -71.20009 | 4877 ft | 251 kts | 25° |
| 2026-05-08 20:54 | 46.64145 | -71.18812 | 4679 ft | 251 kts | 25° |
| 2026-05-08 20:54 | 46.65685 | -71.17614 | 4475 ft | 251 kts | 25° |
| 2026-05-08 20:55 | 46.67220 | -71.16421 | 4301 ft | 248 kts | 24° |
| 2026-05-08 20:55 | 46.68818 | -71.15577 | 4143 ft | 243 kts | 9° |
| 2026-05-08 20:55 | 46.70479 | -71.15200 | 3985 ft | 240 kts | 4° |
| 2026-05-08 20:55 | 46.72137 | -71.14877 | 3833 ft | 241 kts | 5° |
| 2026-05-08 20:56 | 46.73786 | -71.14668 | 3683 ft | 232 kts | 353° |
| 2026-05-08 20:56 | 46.75190 | -71.15286 | 3543 ft | 194 kts | 326° |
| 2026-05-08 20:56 | 46.76133 | -71.16446 | 3460 ft | 166 kts | 305° |
| 2026-05-08 20:56 | 46.76701 | -71.17810 | 3252 ft | 152 kts | 288° |
| 2026-05-08 20:57 | 46.76942 | -71.19249 | 3041 ft | 142 kts | 275° |
| 2026-05-08 20:57 | 46.77074 | -71.20657 | 2827 ft | 138 kts | 276° |
| 2026-05-08 20:57 | 46.77204 | -71.22033 | 2622 ft | 136 kts | 276° |
| 2026-05-08 20:57 | 46.77329 | -71.23362 | 2419 ft | 132 kts | 276° |
| 2026-05-08 20:58 | 46.77446 | -71.24595 | 2238 ft | 113 kts | 276° |
| 2026-05-08 20:58 | 46.77545 | -71.25635 | 2069 ft | 95 kts | 275° |
| 2026-05-08 20:58 | 46.77630 | -71.26584 | 1928 ft | 94 kts | 275° |
| 2026-05-08 20:58 | 46.77718 | -71.27545 | 1789 ft | 97 kts | 276° |
| 2026-05-08 20:59 | 46.77812 | -71.28525 | 1664 ft | 96 kts | 276° |
| 2026-05-08 20:59 | 46.77900 | -71.29455 | 1524 ft | 91 kts | 276° |
| 2026-05-08 20:59 | 46.77984 | -71.30382 | 1402 ft | 94 kts | 277° |
| 2026-05-08 20:59 | 46.78072 | -71.31342 | 1250 ft | 95 kts | 276° |
| 2026-05-08 21:00 | 46.78161 | -71.32303 | 1076 ft | 96 kts | 278° |
| 2026-05-08 21:00 | 46.78253 | -71.33269 | 963 ft | 97 kts | 277° |
| 2026-05-08 21:00 | 46.78344 | -71.34259 | 807 ft | 98 kts | 278° |
| 2026-05-08 21:00 | 46.78435 | -71.35230 | 699 ft | 94 kts | 277° |
| 2026-05-08 21:01 | 46.78520 | -71.36181 | 544 ft | 94 kts | 280° |
| 2026-05-08 21:01 | 46.78613 | -71.37148 | 396 ft | 94 kts | 279° |
| 2026-05-08 21:01 | 46.78701 | -71.38052 | 264 ft | 88 kts | 276° |
| 2026-05-08 21:01 | 46.78768 | -71.38770 | 249 ft | 55 kts | 270° |
| 2026-05-08 21:02 | 46.78791 | -71.39054 | 249 ft | 22 kts | 277° |
| 2026-05-08 21:02 | 46.78827 | -71.39320 | 249 ft | 28 kts | 310° |
| 2026-05-08 21:02 | 46.78972 | -71.39231 | 249 ft | 28 kts | 42° |
| 2026-05-08 21:02 | 46.79140 | -71.39000 | 249 ft | 43 kts | 70° |
| 2026-05-08 21:03 | 46.79113 | -71.38779 | 249 ft | 30 kts | 148° |
| 2026-05-08 21:03 | 46.78949 | -71.38569 | 249 ft | 36 kts | 58° |
| 2026-05-08 21:03 | 46.78926 | -71.38238 | 249 ft | 28 kts | 95° |
| 2026-05-08 21:03 | 46.78917 | -71.38142 | 249 ft | 0 kts | 98° |